sensor_id;sensor_type;location;lat;lon;timestamp;pressure;altitude;pressure_sealevel;temperature;humidity
49451;BME280;35336;48.400;10.886;2023-02-17T00:00:02;97146.06;;;7.49;58.33
49451;BME280;35336;48.400;10.886;2023-02-17T00:00:17;97139.91;;;7.48;58.38
49451;BME280;35336;48.400;10.886;2023-02-17T00:00:33;97134.56;;;7.40;58.44
49451;BME280;35336;48.400;10.886;2023-02-17T00:00:48;97144.41;;;7.47;58.12
49451;BME280;35336;48.400;10.886;2023-02-17T00:01:21;97126.94;;;7.37;58.44
49451;BME280;35336;48.400;10.886;2023-02-17T00:01:37;97138.56;;;7.44;58.52
49451;BME280;35336;48.400;10.886;2023-02-17T00:01:52;97146.66;;;7.42;58.39
49451;BME280;35336;48.400;10.886;2023-02-17T00:02:07;97142.84;;;7.37;58.69
49451;BME280;35336;48.400;10.886;2023-02-17T00:02:23;97128.53;;;7.29;58.68
49451;BME280;35336;48.400;10.886;2023-02-17T00:02:38;97146.16;;;7.39;58.59
49451;BME280;35336;48.400;10.886;2023-02-17T00:02:58;97133.50;;;7.32;58.95
49451;BME280;35336;48.400;10.886;2023-02-17T00:03:13;97141.69;;;7.39;58.99
49451;BME280;35336;48.400;10.886;2023-02-17T00:03:28;97144.81;;;7.35;58.62
49451;BME280;35336;48.400;10.886;2023-02-17T00:03:44;97133.97;;;7.28;58.80
49451;BME280;35336;48.400;10.886;2023-02-17T00:04:00;97121.19;;;7.23;58.69
49451;BME280;35336;48.400;10.886;2023-02-17T00:04:15;97151.78;;;7.36;58.86
49451;BME280;35336;48.400;10.886;2023-02-17T00:04:32;97139.44;;;7.26;59.16
49451;BME280;35336;48.400;10.886;2023-02-17T00:04:47;97142.00;;;7.36;58.73
49451;BME280;35336;48.400;10.886;2023-02-17T00:05:04;97128.84;;;7.26;59.07
49451;BME280;35336;48.400;10.886;2023-02-17T00:05:19;97126.88;;;7.28;59.19
49451;BME280;35336;48.400;10.886;2023-02-17T00:05:38;97148.28;;;7.35;59.07
49451;BME280;35336;48.400;10.886;2023-02-17T00:05:53;97122.84;;;7.24;59.08
49451;BME280;35336;48.400;10.886;2023-02-17T00:06:10;97124.69;;;7.24;59.17
49451;BME280;35336;48.400;10.886;2023-02-17T00:06:27;97138.75;;;7.24;58.90
49451;BME280;35336;48.400;10.886;2023-02-17T00:06:43;97122.50;;;7.19;59.02
49451;BME280;35336;48.400;10.886;2023-02-17T00:06:58;97151.56;;;7.29;58.91
49451;BME280;35336;48.400;10.886;2023-02-17T00:07:14;97147.09;;;7.29;59.30
49451;BME280;35336;48.400;10.886;2023-02-17T00:07:30;97110.09;;;7.02;58.84
49451;BME280;35336;48.400;10.886;2023-02-17T00:07:46;97143.78;;;7.27;59.21
49451;BME280;35336;48.400;10.886;2023-02-17T00:08:01;97117.50;;;7.16;59.13
49451;BME280;35336;48.400;10.886;2023-02-17T00:08:17;97136.75;;;7.18;59.22
49451;BME280;35336;48.400;10.886;2023-02-17T00:08:32;97109.50;;;7.08;59.18
49451;BME280;35336;48.400;10.886;2023-02-17T00:08:48;97138.75;;;7.24;59.24
49451;BME280;35336;48.400;10.886;2023-02-17T00:09:03;97140.31;;;7.27;59.47
49451;BME280;35336;48.400;10.886;2023-02-17T00:09:18;97118.16;;;7.18;59.12
49451;BME280;35336;48.400;10.886;2023-02-17T00:09:35;97113.56;;;7.20;59.21
49451;BME280;35336;48.400;10.886;2023-02-17T00:09:51;97139.22;;;7.38;58.92
49451;BME280;35336;48.400;10.886;2023-02-17T00:10:06;97137.38;;;7.38;59.14
49451;BME280;35336;48.400;10.886;2023-02-17T00:10:22;97138.88;;;7.41;58.78
49451;BME280;35336;48.400;10.886;2023-02-17T00:10:37;97137.22;;;7.40;58.91
49451;BME280;35336;48.400;10.886;2023-02-17T00:10:57;97134.03;;;7.36;58.98
49451;BME280;35336;48.400;10.886;2023-02-17T00:11:13;97122.56;;;7.27;59.05
49451;BME280;35336;48.400;10.886;2023-02-17T00:11:29;97127.56;;;7.30;58.96
49451;BME280;35336;48.400;10.886;2023-02-17T00:11:44;97127.69;;;7.29;59.20
49451;BME280;35336;48.400;10.886;2023-02-17T00:11:59;97140.03;;;7.38;58.92
49451;BME280;35336;48.400;10.886;2023-02-17T00:12:14;97125.72;;;7.31;59.31
49451;BME280;35336;48.400;10.886;2023-02-17T00:12:30;97133.91;;;7.38;59.11
49451;BME280;35336;48.400;10.886;2023-02-17T00:12:45;97135.88;;;7.36;58.90
49451;BME280;35336;48.400;10.886;2023-02-17T00:13:00;97124.28;;;7.37;58.93
49451;BME280;35336;48.400;10.886;2023-02-17T00:13:16;97127.22;;;7.34;59.16
49451;BME280;35336;48.400;10.886;2023-02-17T00:13:31;97121.41;;;7.30;58.73
49451;BME280;35336;48.400;10.886;2023-02-17T00:13:47;97133.38;;;7.34;58.92
49451;BME280;35336;48.400;10.886;2023-02-17T00:14:02;97122.84;;;7.24;58.99
49451;BME280;35336;48.400;10.886;2023-02-17T00:14:18;97139.50;;;7.35;59.25
49451;BME280;35336;48.400;10.886;2023-02-17T00:14:33;97137.16;;;7.31;59.18
49451;BME280;35336;48.400;10.886;2023-02-17T00:14:48;97136.84;;;7.35;59.03
49451;BME280;35336;48.400;10.886;2023-02-17T00:15:04;97139.50;;;7.35;58.97
49451;BME280;35336;48.400;10.886;2023-02-17T00:15:20;97139.22;;;7.38;59.05
49451;BME280;35336;48.400;10.886;2023-02-17T00:15:38;97113.22;;;7.23;58.61
49451;BME280;35336;48.400;10.886;2023-02-17T00:15:54;97131.91;;;7.40;58.88
49451;BME280;35336;48.400;10.886;2023-02-17T00:16:13;97137.38;;;7.38;58.70
49451;BME280;35336;48.400;10.886;2023-02-17T00:16:30;97141.00;;;7.37;59.07
49451;BME280;35336;48.400;10.886;2023-02-17T00:16:45;97136.69;;;7.36;59.16
49451;BME280;35336;48.400;10.886;2023-02-17T00:17:00;97145.50;;;7.37;59.21
49451;BME280;35336;48.400;10.886;2023-02-17T00:17:16;97147.31;;;7.36;58.86
49451;BME280;35336;48.400;10.886;2023-02-17T00:17:31;97144.81;;;7.35;59.10
49451;BME280;35336;48.400;10.886;2023-02-17T00:17:47;97136.03;;;7.34;59.13
49451;BME280;35336;48.400;10.886;2023-02-17T00:18:02;97137.84;;;7.34;58.90
49451;BME280;35336;48.400;10.886;2023-02-17T00:18:17;97137.66;;;7.35;59.06
49451;BME280;35336;48.400;10.886;2023-02-17T00:18:33;97135.88;;;7.36;58.95
49451;BME280;35336;48.400;10.886;2023-02-17T00:18:53;97113.22;;;7.23;58.84
49451;BME280;35336;48.400;10.886;2023-02-17T00:19:10;97136.16;;;7.32;58.72
49451;BME280;35336;48.400;10.886;2023-02-17T00:19:26;97139.81;;;7.31;58.92
49451;BME280;35336;48.400;10.886;2023-02-17T00:19:42;97127.84;;;7.27;59.25
49451;BME280;35336;48.400;10.886;2023-02-17T00:19:57;97135.34;;;7.32;59.23
49451;BME280;35336;48.400;10.886;2023-02-17T00:20:13;97121.19;;;7.23;59.13
49451;BME280;35336;48.400;10.886;2023-02-17T00:20:28;97134.50;;;7.31;59.21
49451;BME280;35336;48.400;10.886;2023-02-17T00:20:44;97095.56;;;7.06;59.05
49451;BME280;35336;48.400;10.886;2023-02-17T00:20:59;97134.50;;;7.31;59.10
49451;BME280;35336;48.400;10.886;2023-02-17T00:21:16;97133.50;;;7.32;58.83
49451;BME280;35336;48.400;10.886;2023-02-17T00:21:32;97137.84;;;7.34;59.24
49451;BME280;35336;48.400;10.886;2023-02-17T00:22:00;97095.56;;;7.06;59.02
49451;BME280;35336;48.400;10.886;2023-02-17T00:22:16;97130.88;;;7.32;58.94
49451;BME280;35336;48.400;10.886;2023-02-17T00:22:31;97141.47;;;7.32;59.00
49451;BME280;35336;48.400;10.886;2023-02-17T00:22:47;97123.69;;;7.25;59.26
49451;BME280;35336;48.400;10.886;2023-02-17T00:23:02;97112.88;;;7.18;59.03
49451;BME280;35336;48.400;10.886;2023-02-17T00:23:17;97106.75;;;7.18;59.22
49451;BME280;35336;48.400;10.886;2023-02-17T00:23:33;97138.16;;;7.30;59.36
49451;BME280;35336;48.400;10.886;2023-02-17T00:23:48;97119.53;;;7.22;58.90
49451;BME280;35336;48.400;10.886;2023-02-17T00:24:04;97142.63;;;7.30;59.18
49451;BME280;35336;48.400;10.886;2023-02-17T00:24:21;97126.19;;;7.26;58.99
49451;BME280;35336;48.400;10.886;2023-02-17T00:24:38;97107.22;;;7.13;59.33
49451;BME280;35336;48.400;10.886;2023-02-17T00:24:53;97131.50;;;7.26;59.46
49451;BME280;35336;48.400;10.886;2023-02-17T00:25:08;97135.66;;;7.29;59.11
49451;BME280;35336;48.400;10.886;2023-02-17T00:25:24;97112.06;;;7.18;59.36
49451;BME280;35336;48.400;10.886;2023-02-17T00:25:39;97117.25;;;7.27;58.86
49451;BME280;35336;48.400;10.886;2023-02-17T00:25:55;97133.50;;;7.32;58.86
49451;BME280;35336;48.400;10.886;2023-02-17T00:26:11;97121.69;;;7.19;59.13
49451;BME280;35336;48.400;10.886;2023-02-17T00:26:26;97138.16;;;7.30;59.17
49451;BME280;35336;48.400;10.886;2023-02-17T00:26:41;97138.16;;;7.30;59.03
49451;BME280;35336;48.400;10.886;2023-02-17T00:26:57;97138.81;;;7.32;59.23
49451;BME280;35336;48.400;10.886;2023-02-17T00:27:13;97134.38;;;7.33;59.37
49451;BME280;35336;48.400;10.886;2023-02-17T00:27:28;97141.47;;;7.32;59.02
49451;BME280;35336;48.400;10.886;2023-02-17T00:27:43;97120.88;;;7.26;58.87
49451;BME280;35336;48.400;10.886;2023-02-17T00:27:59;97123.22;;;7.29;59.06
49451;BME280;35336;48.400;10.886;2023-02-17T00:28:14;97134.56;;;7.40;58.90
49451;BME280;35336;48.400;10.886;2023-02-17T00:28:29;97122.25;;;7.30;58.79
49451;BME280;35336;48.400;10.886;2023-02-17T00:28:45;97129.63;;;7.45;58.91
49451;BME280;35336;48.400;10.886;2023-02-17T00:29:00;97138.25;;;7.47;58.59
49451;BME280;35336;48.400;10.886;2023-02-17T00:29:16;97141.06;;;7.45;58.65
49451;BME280;35336;48.400;10.886;2023-02-17T00:29:32;97141.59;;;7.49;58.81
49451;BME280;35336;48.400;10.886;2023-02-17T00:29:47;97127.50;;;7.49;58.81
49451;BME280;35336;48.400;10.886;2023-02-17T00:30:03;97115.84;;;7.41;58.61
49451;BME280;35336;48.400;10.886;2023-02-17T00:30:19;97136.28;;;7.49;58.35
49451;BME280;35336;48.400;10.886;2023-02-17T00:30:36;97096.66;;;7.21;58.46
49451;BME280;35336;48.400;10.886;2023-02-17T00:30:51;97120.94;;;7.35;58.51
49451;BME280;35336;48.400;10.886;2023-02-17T00:31:09;97136.91;;;7.43;58.56
49451;BME280;35336;48.400;10.886;2023-02-17T00:31:24;97122.91;;;7.32;58.74
49451;BME280;35336;48.400;10.886;2023-02-17T00:31:40;97111.94;;;7.27;58.46
49451;BME280;35336;48.400;10.886;2023-02-17T00:31:55;97134.41;;;7.41;58.67
49451;BME280;35336;48.400;10.886;2023-02-17T00:32:11;97134.56;;;7.40;58.66
49451;BME280;35336;48.400;10.886;2023-02-17T00:32:26;97135.53;;;7.39;58.71
49451;BME280;35336;48.400;10.886;2023-02-17T00:32:42;97129.72;;;7.35;58.63
49451;BME280;35336;48.400;10.886;2023-02-17T00:32:58;97122.91;;;7.32;58.90
49451;BME280;35336;48.400;10.886;2023-02-17T00:33:13;97094.47;;;7.17;58.82
49451;BME280;35336;48.400;10.886;2023-02-17T00:33:29;97123.44;;;7.36;58.47
49451;BME280;35336;48.400;10.886;2023-02-17T00:33:44;97107.16;;;7.31;58.48
49451;BME280;35336;48.400;10.886;2023-02-17T00:33:59;97129.00;;;7.51;58.51
49451;BME280;35336;48.400;10.886;2023-02-17T00:34:16;97126.34;;;7.51;58.36
49451;BME280;35336;48.400;10.886;2023-02-17T00:34:31;97116.66;;;7.42;58.54
49451;BME280;35336;48.400;10.886;2023-02-17T00:34:46;97106.53;;;7.37;58.31
49451;BME280;35336;48.400;10.886;2023-02-17T00:35:02;97116.44;;;7.35;58.47
49451;BME280;35336;48.400;10.886;2023-02-17T00:35:17;97127.97;;;7.44;58.56
49451;BME280;35336;48.400;10.886;2023-02-17T00:35:33;97130.91;;;7.41;58.75
49451;BME280;35336;48.400;10.886;2023-02-17T00:35:48;97129.94;;;7.42;58.82
49451;BME280;35336;48.400;10.886;2023-02-17T00:36:10;97128.25;;;7.41;58.59
49451;BME280;35336;48.400;10.886;2023-02-17T00:36:26;97119.59;;;7.30;58.70
49451;BME280;35336;48.400;10.886;2023-02-17T00:36:41;97129.56;;;7.37;58.79
49451;BME280;35336;48.400;10.886;2023-02-17T00:36:57;97131.09;;;7.39;58.75
49451;BME280;35336;48.400;10.886;2023-02-17T00:37:12;97111.94;;;7.27;58.91
49451;BME280;35336;48.400;10.886;2023-02-17T00:37:27;97115.56;;;7.26;58.95
49451;BME280;35336;48.400;10.886;2023-02-17T00:37:43;97121.63;;;7.37;59.00
49451;BME280;35336;48.400;10.886;2023-02-17T00:37:58;97127.75;;;7.37;58.75
49451;BME280;35336;48.400;10.886;2023-02-17T00:38:13;97128.72;;;7.36;59.02
49451;BME280;35336;48.400;10.886;2023-02-17T00:38:29;97112.75;;;7.28;59.19
49451;BME280;35336;48.400;10.886;2023-02-17T00:38:44;97122.44;;;7.37;58.67
49451;BME280;35336;48.400;10.886;2023-02-17T00:39:00;97091.13;;;7.14;58.67
49451;BME280;35336;48.400;10.886;2023-02-17T00:39:16;97128.59;;;7.38;58.57
49451;BME280;35336;48.400;10.886;2023-02-17T00:39:31;97119.94;;;7.36;59.06
49451;BME280;35336;48.400;10.886;2023-02-17T00:39:47;97124.94;;;7.39;58.93
49451;BME280;35336;48.400;10.886;2023-02-17T00:40:02;97126.47;;;7.41;58.47
49451;BME280;35336;48.400;10.886;2023-02-17T00:40:18;97109.97;;;7.29;58.96
49451;BME280;35336;48.400;10.886;2023-02-17T00:40:33;97124.94;;;7.39;58.89
49451;BME280;35336;48.400;10.886;2023-02-17T00:40:48;97123.81;;;7.41;58.75
49451;BME280;35336;48.400;10.886;2023-02-17T00:41:04;97120.78;;;7.36;58.49
49451;BME280;35336;48.400;10.886;2023-02-17T00:41:19;97093.31;;;7.19;58.76
49451;BME280;35336;48.400;10.886;2023-02-17T00:41:35;97120.63;;;7.38;58.90
49451;BME280;35336;48.400;10.886;2023-02-17T00:41:50;97114.81;;;7.34;58.66
49451;BME280;35336;48.400;10.886;2023-02-17T00:42:06;97118.81;;;7.38;58.95
49451;BME280;35336;48.400;10.886;2023-02-17T00:42:21;97081.72;;;7.20;58.50
49451;BME280;35336;48.400;10.886;2023-02-17T00:42:36;97119.63;;;7.39;58.56
49451;BME280;35336;48.400;10.886;2023-02-17T00:42:52;97117.47;;;7.42;58.79
49451;BME280;35336;48.400;10.886;2023-02-17T00:43:07;97117.47;;;7.42;58.57
49451;BME280;35336;48.400;10.886;2023-02-17T00:43:22;97111.19;;;7.43;58.51
49451;BME280;35336;48.400;10.886;2023-02-17T00:43:38;97112.03;;;7.44;58.26
49451;BME280;35336;48.400;10.886;2023-02-17T00:43:53;97092.06;;;7.31;58.28
49451;BME280;35336;48.400;10.886;2023-02-17T00:44:18;97111.25;;;7.52;58.40
49451;BME280;35336;48.400;10.886;2023-02-17T00:44:33;97114.75;;;7.52;58.33
49451;BME280;35336;48.400;10.886;2023-02-17T00:44:48;97112.38;;;7.49;58.18
49451;BME280;35336;48.400;10.886;2023-02-17T00:45:05;97095.44;;;7.42;58.14
49451;BME280;35336;48.400;10.886;2023-02-17T00:45:20;97123.81;;;7.50;58.08
49451;BME280;35336;48.400;10.886;2023-02-17T00:45:36;97094.75;;;7.40;58.09
49451;BME280;35336;48.400;10.886;2023-02-17T00:45:51;97112.69;;;7.46;58.02
49451;BME280;35336;48.400;10.886;2023-02-17T00:46:06;97103.22;;;7.43;58.22
49451;BME280;35336;48.400;10.886;2023-02-17T00:46:23;97099.25;;;7.39;58.44
49451;BME280;35336;48.400;10.886;2023-02-17T00:46:38;97098.78;;;7.44;58.29
49451;BME280;35336;48.400;10.886;2023-02-17T00:46:54;97093.97;;;7.47;57.93
49451;BME280;35336;48.400;10.886;2023-02-17T00:47:09;97085.00;;;7.40;57.96
49451;BME280;35336;48.400;10.886;2023-02-17T00:47:24;97113.41;;;7.56;57.63
49451;BME280;35336;48.400;10.886;2023-02-17T00:47:40;97104.78;;;7.54;57.80
49451;BME280;35336;48.400;10.886;2023-02-17T00:47:55;97094.44;;;7.43;58.04
49451;BME280;35336;48.400;10.886;2023-02-17T00:48:10;97110.25;;;7.53;57.95
49451;BME280;35336;48.400;10.886;2023-02-17T00:48:26;97107.91;;;7.50;57.70
49451;BME280;35336;48.400;10.886;2023-02-17T00:48:41;97103.44;;;7.50;58.13
49451;BME280;35336;48.400;10.886;2023-02-17T00:48:57;97099.44;;;7.46;58.26
49451;BME280;35336;48.400;10.886;2023-02-17T00:49:18;97100.09;;;7.48;58.19
49451;BME280;35336;48.400;10.886;2023-02-17T00:49:33;97111.41;;;7.50;58.01
49451;BME280;35336;48.400;10.886;2023-02-17T00:49:48;97106.91;;;7.51;58.10
49451;BME280;35336;48.400;10.886;2023-02-17T00:50:05;97102.09;;;7.46;58.25
49451;BME280;35336;48.400;10.886;2023-02-17T00:50:21;97090.81;;;7.44;57.98
49451;BME280;35336;48.400;10.886;2023-02-17T00:50:36;97102.13;;;7.54;57.99
49451;BME280;35336;48.400;10.886;2023-02-17T00:50:51;97090.13;;;7.42;58.01
49451;BME280;35336;48.400;10.886;2023-02-17T00:51:07;97111.06;;;7.53;57.97
49451;BME280;35336;48.400;10.886;2023-02-17T00:51:23;97094.44;;;7.43;57.83
49451;BME280;35336;48.400;10.886;2023-02-17T00:51:38;97095.97;;;7.45;58.02
49451;BME280;35336;48.400;10.886;2023-02-17T00:51:54;97084.00;;;7.41;57.93
49451;BME280;35336;48.400;10.886;2023-02-17T00:52:09;97103.97;;;7.54;57.64
49451;BME280;35336;48.400;10.886;2023-02-17T00:52:25;97097.97;;;7.52;57.86
49451;BME280;35336;48.400;10.886;2023-02-17T00:52:40;97103.78;;;7.55;57.48
49451;BME280;35336;48.400;10.886;2023-02-17T00:52:55;97085.00;;;7.40;57.69
49451;BME280;35336;48.400;10.886;2023-02-17T00:53:11;97114.41;;;7.55;57.57
49451;BME280;35336;48.400;10.886;2023-02-17T00:53:26;97091.97;;;7.50;57.94
49451;BME280;35336;48.400;10.886;2023-02-17T00:53:42;97102.13;;;7.54;57.48
49451;BME280;35336;48.400;10.886;2023-02-17T00:53:58;97108.13;;;7.56;57.60
49451;BME280;35336;48.400;10.886;2023-02-17T00:54:14;97092.16;;;7.48;57.89
49451;BME280;35336;48.400;10.886;2023-02-17T00:54:30;97104.47;;;7.57;57.71
49451;BME280;35336;48.400;10.886;2023-02-17T00:54:45;97105.16;;;7.59;58.05
49451;BME280;35336;48.400;10.886;2023-02-17T00:55:00;97071.03;;;7.38;57.97
49451;BME280;35336;48.400;10.886;2023-02-17T00:55:16;97096.31;;;7.51;58.00
49451;BME280;35336;48.400;10.886;2023-02-17T00:55:31;97110.97;;;7.63;57.91
49451;BME280;35336;48.400;10.886;2023-02-17T00:55:46;97100.66;;;7.60;57.40
49451;BME280;35336;48.400;10.886;2023-02-17T00:56:02;97102.63;;;7.58;57.63
49451;BME280;35336;48.400;10.886;2023-02-17T00:56:18;97110.81;;;7.65;57.46
49451;BME280;35336;48.400;10.886;2023-02-17T00:56:33;97108.31;;;7.63;57.31
49451;BME280;35336;48.400;10.886;2023-02-17T00:56:48;97086.53;;;7.51;57.49
49451;BME280;35336;48.400;10.886;2023-02-17T00:57:04;97088.34;;;7.51;57.25
49451;BME280;35336;48.400;10.886;2023-02-17T00:57:19;97101.34;;;7.62;57.48
49451;BME280;35336;48.400;10.886;2023-02-17T00:57:34;97091.00;;;7.51;57.79
49451;BME280;35336;48.400;10.886;2023-02-17T00:57:50;97103.28;;;7.52;57.74
49451;BME280;35336;48.400;10.886;2023-02-17T00:58:05;97106.63;;;7.54;57.53
49451;BME280;35336;48.400;10.886;2023-02-17T00:58:21;97107.09;;;7.49;57.58
49451;BME280;35336;48.400;10.886;2023-02-17T00:58:36;97110.47;;;7.59;57.88
49451;BME280;35336;48.400;10.886;2023-02-17T00:58:52;97120.22;;;7.59;57.64
49451;BME280;35336;48.400;10.886;2023-02-17T00:59:08;97095.78;;;7.47;57.60
49451;BME280;35336;48.400;10.886;2023-02-17T00:59:24;97103.63;;;7.49;57.56
49451;BME280;35336;48.400;10.886;2023-02-17T00:59:39;97116.25;;;7.55;57.60
49451;BME280;35336;48.400;10.886;2023-02-17T00:59:54;97120.41;;;7.57;58.01
49451;BME280;35336;48.400;10.886;2023-02-17T01:00:10;97112.59;;;7.56;58.09
49451;BME280;35336;48.400;10.886;2023-02-17T01:00:26;97100.09;;;7.48;57.72
49451;BME280;35336;48.400;10.886;2023-02-17T01:00:41;97115.56;;;7.53;57.72
49451;BME280;35336;48.400;10.886;2023-02-17T01:00:57;97118.56;;;7.58;57.87
49451;BME280;35336;48.400;10.886;2023-02-17T01:01:13;97105.41;;;7.48;57.61
49451;BME280;35336;48.400;10.886;2023-02-17T01:01:28;97117.75;;;7.57;57.81
49451;BME280;35336;48.400;10.886;2023-02-17T01:01:44;97118.78;;;7.65;57.92
49451;BME280;35336;48.400;10.886;2023-02-17T01:01:59;97128.75;;;7.71;57.90
49451;BME280;35336;48.400;10.886;2023-02-17T01:02:14;97112.63;;;7.64;57.67
49451;BME280;35336;48.400;10.886;2023-02-17T01:02:29;97074.91;;;7.44;57.42
49451;BME280;35336;48.400;10.886;2023-02-17T01:02:45;97120.50;;;7.74;57.47
49451;BME280;35336;48.400;10.886;2023-02-17T01:03:00;97115.78;;;7.68;57.21
49451;BME280;35336;48.400;10.886;2023-02-17T01:03:17;97115.66;;;7.69;57.14
49451;BME280;35336;48.400;10.886;2023-02-17T01:03:33;97116.47;;;7.70;57.32
49451;BME280;35336;48.400;10.886;2023-02-17T01:03:48;97123.13;;;7.74;57.27
49451;BME280;35336;48.400;10.886;2023-02-17T01:04:04;97124.13;;;7.73;57.27
49451;BME280;35336;48.400;10.886;2023-02-17T01:04:19;97116.16;;;7.73;57.44
49451;BME280;35336;48.400;10.886;2023-02-17T01:04:34;97105.50;;;7.65;57.22
49451;BME280;35336;48.400;10.886;2023-02-17T01:04:50;97115.13;;;7.66;57.19
49451;BME280;35336;48.400;10.886;2023-02-17T01:05:06;97130.09;;;7.75;57.35
49451;BME280;35336;48.400;10.886;2023-02-17T01:05:21;97123.13;;;7.74;57.33
49451;BME280;35336;48.400;10.886;2023-02-17T01:05:44;97118.81;;;7.73;57.54
49451;BME280;35336;48.400;10.886;2023-02-17T01:06:05;97105.16;;;7.68;57.58
49451;BME280;35336;48.400;10.886;2023-02-17T01:06:24;97119.81;;;7.72;57.25
49451;BME280;35336;48.400;10.886;2023-02-17T01:06:40;97120.78;;;7.71;57.13
49451;BME280;35336;48.400;10.886;2023-02-17T01:06:55;97121.47;;;7.73;57.28
49451;BME280;35336;48.400;10.886;2023-02-17T01:07:10;97125.47;;;7.77;57.30
49451;BME280;35336;48.400;10.886;2023-02-17T01:07:26;97119.47;;;7.75;57.51
49451;BME280;35336;48.400;10.886;2023-02-17T01:07:41;97127.28;;;7.76;57.47
49451;BME280;35336;48.400;10.886;2023-02-17T01:07:57;97127.44;;;7.75;57.16
49451;BME280;35336;48.400;10.886;2023-02-17T01:08:13;97121.97;;;7.76;57.23
49451;BME280;35336;48.400;10.886;2023-02-17T01:08:28;97127.13;;;7.78;57.14
49451;BME280;35336;48.400;10.886;2023-02-17T01:08:43;97102.50;;;7.59;57.00
49451;BME280;35336;48.400;10.886;2023-02-17T01:09:00;97107.69;;;7.69;57.33
49451;BME280;35336;48.400;10.886;2023-02-17T01:09:15;97112.81;;;7.71;57.47
49451;BME280;35336;48.400;10.886;2023-02-17T01:09:30;97135.09;;;7.78;57.24
49451;BME280;35336;48.400;10.886;2023-02-17T01:09:45;97133.41;;;7.77;57.17
49451;BME280;35336;48.400;10.886;2023-02-17T01:10:02;97131.44;;;7.79;56.90
49451;BME280;35336;48.400;10.886;2023-02-17T01:10:18;97124.47;;;7.78;57.19
49451;BME280;35336;48.400;10.886;2023-02-17T01:10:38;97123.66;;;7.77;56.89
49451;BME280;35336;48.400;10.886;2023-02-17T01:10:54;97109.81;;;7.66;56.88
49451;BME280;35336;48.400;10.886;2023-02-17T01:11:19;97126.66;;;7.83;57.04
49451;BME280;35336;48.400;10.886;2023-02-17T01:11:35;97131.13;;;7.82;57.38
49451;BME280;35336;48.400;10.886;2023-02-17T01:11:50;97122.31;;;7.82;57.02
49451;BME280;35336;48.400;10.886;2023-02-17T01:12:06;97125.81;;;7.82;57.23
49451;BME280;35336;48.400;10.886;2023-02-17T01:12:21;97132.25;;;7.79;57.41
49451;BME280;35336;48.400;10.886;2023-02-17T01:12:37;97094.16;;;7.54;57.27
49451;BME280;35336;48.400;10.886;2023-02-17T01:12:53;97115.47;;;7.71;57.26
49451;BME280;35336;48.400;10.886;2023-02-17T01:13:08;97122.47;;;7.72;57.58
49451;BME280;35336;48.400;10.886;2023-02-17T01:13:24;97124.47;;;7.78;57.63
49451;BME280;35336;48.400;10.886;2023-02-17T01:13:39;97125.81;;;7.82;57.28
49451;BME280;35336;48.400;10.886;2023-02-17T01:13:55;97114.16;;;7.75;57.40
49451;BME280;35336;48.400;10.886;2023-02-17T01:14:13;97124.97;;;7.82;57.07
49451;BME280;35336;48.400;10.886;2023-02-17T01:14:28;97094.53;;;7.59;57.13
49451;BME280;35336;48.400;10.886;2023-02-17T01:14:43;97124.97;;;7.82;57.38
49451;BME280;35336;48.400;10.886;2023-02-17T01:15:00;97129.47;;;7.81;57.09
49451;BME280;35336;48.400;10.886;2023-02-17T01:15:15;97125.81;;;7.82;57.37
49451;BME280;35336;48.400;10.886;2023-02-17T01:15:31;97110.84;;;7.73;57.43
49451;BME280;35336;48.400;10.886;2023-02-17T01:15:48;97106.53;;;7.72;57.40
49451;BME280;35336;48.400;10.886;2023-02-17T01:16:04;97097.53;;;7.65;56.96
49451;BME280;35336;48.400;10.886;2023-02-17T01:16:23;97128.47;;;7.82;57.15
49451;BME280;35336;48.400;10.886;2023-02-17T01:16:45;97113.50;;;7.73;56.95
49451;BME280;35336;48.400;10.886;2023-02-17T01:17:00;97128.31;;;7.84;56.93
49451;BME280;35336;48.400;10.886;2023-02-17T01:17:16;97117.50;;;7.77;56.91
49451;BME280;35336;48.400;10.886;2023-02-17T01:17:31;97117.97;;;7.72;57.32
49451;BME280;35336;48.400;10.886;2023-02-17T01:17:47;97123.47;;;7.79;57.41
49451;BME280;35336;48.400;10.886;2023-02-17T01:18:02;97133.13;;;7.80;57.04
49451;BME280;35336;48.400;10.886;2023-02-17T01:18:20;97134.91;;;7.79;57.38
49451;BME280;35336;48.400;10.886;2023-02-17T01:18:35;97123.13;;;7.74;56.98
49451;BME280;35336;48.400;10.886;2023-02-17T01:18:51;97127.13;;;7.78;57.02
49451;BME280;35336;48.400;10.886;2023-02-17T01:19:10;97124.78;;;7.75;57.38
49451;BME280;35336;48.400;10.886;2023-02-17T01:19:25;97128.13;;;7.77;57.46
49451;BME280;35336;48.400;10.886;2023-02-17T01:19:40;97080.91;;;7.54;56.94
49451;BME280;35336;48.400;10.886;2023-02-17T01:19:56;97121.81;;;7.78;56.90
49451;BME280;35336;48.400;10.886;2023-02-17T01:20:11;97130.28;;;7.82;57.20
49451;BME280;35336;48.400;10.886;2023-02-17T01:20:27;97105.50;;;7.65;57.16
49451;BME280;35336;48.400;10.886;2023-02-17T01:20:42;97130.28;;;7.82;57.29
49451;BME280;35336;48.400;10.886;2023-02-17T01:20:57;97128.78;;;7.79;56.95
49451;BME280;35336;48.400;10.886;2023-02-17T01:21:21;97127.81;;;7.80;57.08
49451;BME280;35336;48.400;10.886;2023-02-17T01:21:37;97123.16;;;7.82;57.44
49451;BME280;35336;48.400;10.886;2023-02-17T01:21:53;97126.13;;;7.79;57.31
49451;BME280;35336;48.400;10.886;2023-02-17T01:22:08;97129.47;;;7.81;57.10
49451;BME280;35336;48.400;10.886;2023-02-17T01:22:24;97138.25;;;7.82;57.29
49451;BME280;35336;48.400;10.886;2023-02-17T01:22:39;97133.75;;;7.82;57.32
49451;BME280;35336;48.400;10.886;2023-02-17T01:22:54;97108.66;;;7.68;56.97
49451;BME280;35336;48.400;10.886;2023-02-17T01:23:10;97133.75;;;7.82;57.39
49451;BME280;35336;48.400;10.886;2023-02-17T01:23:26;97122.81;;;7.77;57.35
49451;BME280;35336;48.400;10.886;2023-02-17T01:23:41;97119.81;;;7.72;57.37
49451;BME280;35336;48.400;10.886;2023-02-17T01:23:59;97115.94;;;7.66;56.64
49451;BME280;35336;48.400;10.886;2023-02-17T01:24:15;97122.81;;;7.77;57.22
49451;BME280;35336;48.400;10.886;2023-02-17T01:24:31;97125.16;;;7.80;57.09